Home > Products > Valid Products > TAF

000
FTUS46 KSTO 172300
TAFSAC
TAF
KSAC 172324Z 1800/1824 23010G18KT P6SM FEW250
     FM180400 20007KT P6SM SKC=



000
FTUS46 KSTO 172300
TAFMHR
TAF
KMHR 172324Z 1800/1824 20010KT P6SM FEW250
     FM180600 30005KT P6SM SKC=



000
FTUS46 KSTO 172300
TAFSCK
TAF
KSCK 172324Z 1800/1824 26010G18KT P6SM FEW250
     FM180500 29007KT P6SM SKC=



000
FTUS46 KSTO 172300
TAFRBL
TAF
KRBL 172324Z 1800/1824 32012G22KT P6SM BKN100
     FM180400 33008KT P6SM OVC100
     FM181500 32010G17KT P6SM SKC=



000
FTUS46 KSTO 172300
TAFSMF
TAF
KSMF 172324Z 1800/1824 19011G20KT P6SM FEW250
     FM180600 32008KT P6SM SKC=



000
FTUS46 KSTO 172300
TAFRDD
TAF
KRDD 172324Z 1800/1824 30010G20KT P6SM BKN100
     FM180300 32007KT P6SM VCSH OVC070
     FM180900 34008KT P6SM SKC=



000
FTUS46 KSTO 171700
TAFSMF
TAF
KSMF 171728Z 1718/1818 VRB05KT P6SM SKC
     FM172300 18011G17KT P6SM FEW250
     FM180600 17008KT P6SM BKN250=



000
FTUS46 KSTO 171700
TAFRBL
TAF
KRBL 171728Z 1718/1818 15006KT P6SM FEW200
     FM180300 33008KT P6SM OVC100=



000
FTUS46 KSTO 171700
TAFSCK
TAF
KSCK 171728Z 1718/1818 VRB05KT P6SM SCT250
     FM172000 27006KT P6SM SKC
     FM180000 26012G20KT P6SM BKN250=



000
FTUS46 KSTO 171700
TAFMHR
TAF
KMHR 171728Z 1718/1818 VRB05KT P6SM SKC
     FM172200 20007KT P6SM SCT250=



000
FTUS46 KSTO 171700
TAFSAC
TAF
KSAC 171728Z 1718/1818 VRB04KT P6SM SKC
     FM172200 23008G15KT P6SM FEW250
     FM180300 20007KT P6SM BKN250=



000
FTUS46 KSTO 171700
TAFRDD
TAF
KRDD 171728Z 1718/1818 VRB05KT P6SM FEW200
     FM171900 28005KT P6SM SCT200
     FM180300 32007KT P6SM OVC100=



000
FTUS46 KSTO 171100 RRA
TAFSCK
TAF
KSCK 171142Z 1712/1812 30006KT P6SM SKC
     FM172300 27010G17KT P6SM SCT250
     FM180300 26011KT P6SM BKN250=



000
FTUS46 KSTO 171100 RRA
TAFRBL
TAF
KRBL 171142Z 1712/1812 34006KT P6SM FEW200
     FM172000 18008KT P6SM SCT200
     FM180300 33008KT P6SM OVC100=



000
FTUS46 KSTO 171100 RRA
TAFRDD
TAF
KRDD 171142Z 1712/1812 32005KT P6SM FEW200
     FM171800 28005KT P6SM SCT200
     FM180300 32007KT P6SM OVC100=



000
FTUS46 KSTO 171100 RRA
TAFSAC
TAF
KSAC 171142Z 1712/1812 VRB04KT P6SM SKC
     FM172200 23008G15KT P6SM FEW250
     FM180300 20007KT P6SM BKN250=



000
FTUS46 KSTO 171100 RRA
TAFSMF
TAF
KSMF 171142Z 1712/1812 VRB05KT P6SM SKC
     FM172300 18011G17KT P6SM FEW250
     FM180300 17010KT P6SM BKN250=



000
FTUS46 KSTO 171100 RRA
TAFMHR
TAF
KMHR 171142Z 1712/1812 VRB05KT P6SM SKC
     FM172300 19010KT P6SM FEW250
     FM180600 16008KT P6SM SCT250=



000
FTUS46 KSTO 170500
TAFSCK
TAF
KSCK 170520Z 1706/1806 31007KT P6SM BKN200
     FM171600 28007KT P6SM SKC
     FM180200 26011G17KT P6SM SCT250=



000
FTUS46 KSTO 170500
TAFRBL
TAF
KRBL 170520Z 1706/1806 29005KT P6SM SKC
     FM172000 18006KT P6SM OVC250
     FM180300 32008KT P6SM OVC100=



000
FTUS46 KSTO 170500
TAFRDD
TAF
KRDD 170520Z 1706/1806 32007KT P6SM SCT200
     FM171800 28005KT P6SM SCT250
     FM180000 32008KT P6SM OVC100=



000
FTUS46 KSTO 170500
TAFSAC
TAF
KSAC 170520Z 1706/1806 VRB04KT P6SM SKC
     FM172200 23008KT P6SM FEW250
     FM180000 22010G15KT P6SM FEW250=



000
FTUS46 KSTO 170500
TAFSMF
TAF
KSMF 170520Z 1706/1806 VRB05KT P6SM SKC
     FM171800 20009KT P6SM FEW250
     FM172300 17011G16KT P6SM SCT250
     FM180300 18010KT P6SM OVC250=



000
FTUS46 KSTO 170500
TAFMHR
TAF
KMHR 170520Z 1706/1806 VRB04KT P6SM SKC
     FM172200 21008KT P6SM SCT250
     FM180200 19010KT P6SM SCT250=



000
FTUS46 KSTO 170100 AAA
TAFRBL
TAF AMD
KRBL 170117Z 1701/1724 35008KT P6SM SKC
     FM172000 18006KT P6SM OVC250=



000
FTUS46 KSTO 162300
TAFSMF
TAF
KSMF 162332Z 1700/1724 35010KT P6SM BKN200
     FM170300 VRB05KT P6SM SKC
     FM172100 20010KT P6SM FEW250=



000
FTUS46 KSTO 162300
TAFSCK
TAF
KSCK 162332Z 1700/1724 31010KT P6SM BKN200
     FM170500 28007KT P6SM SKC=



000
FTUS46 KSTO 162300
TAFSAC
TAF
KSAC 162332Z 1700/1724 32008G16KT P6SM BKN200
     FM170100 32007KT P6SM SKC
     FM170400 VRB04KT P6SM SKC
     FM172200 23008KT P6SM FEW250=



000
FTUS46 KSTO 162300
TAFRBL
TAF
KRBL 162332Z 1700/1724 34014G20KT P6SM SCT200
     FM170200 35009KT P6SM SKC=



000
FTUS46 KSTO 162300
TAFMHR
TAF
KMHR 162332Z 1700/1724 32008KT P6SM SCT200
     FM170200 VRB04KT P6SM SKC
     FM172200 21008KT P6SM SCT250=



000
FTUS46 KSTO 162300
TAFRDD
TAF
KRDD 162332Z 1700/1724 34007KT P6SM SCT200
     FM171800 28005KT P6SM SCT250=



000
FTUS46 KSTO 161700
TAFRDD
TAF
KRDD 161723Z 1618/1718 34008KT P6SM FEW200
     FM161900 35013G19KT P6SM SCT200
     FM170000 35007KT P6SM SCT200=



000
FTUS46 KSTO 161700
TAFSCK
TAF
KSCK 161723Z 1618/1718 33010G16KT P6SM SCT200
     FM170000 30007KT P6SM SKC=



000
FTUS46 KSTO 161700
TAFRBL
TAF
KRBL 161723Z 1618/1718 34015G22KT P6SM SCT200
     FM170000 35009KT P6SM SKC=



000
FTUS46 KSTO 161700
TAFSAC
TAF
KSAC 161723Z 1618/1718 35008KT P6SM FEW200
     FM161900 34010G16KT P6SM SCT200
     FM170000 VRB05KT P6SM SKC=



000
FTUS46 KSTO 161700
TAFMHR
TAF
KMHR 161723Z 1618/1718 VRB05KT P6SM FEW200
     FM162100 32008KT P6SM SCT200
     FM170000 VRB04KT P6SM SKC=



000
FTUS46 KSTO 161700
TAFSMF
TAF
KSMF 161723Z 1618/1718 36010KT P6SM FEW200
     FM161900 33010G18KT P6SM SCT200
     FM170000 VRB05KT P6SM SKC=



000
FTUS46 KSTO 161100
TAFRBL
TAF
KRBL 161131Z 1612/1712 33010KT P6SM FEW200
     FM161500 34014G24KT P6SM BKN200
     FM162200 35012G17KT P6SM SKC
     FM170000 35009KT P6SM SKC=



000
FTUS46 KSTO 161100
TAFSCK
TAF
KSCK 161131Z 1612/1712 30007KT P6SM FEW200
     FM161800 33010G16KT P6SM SCT200
     FM170000 30007KT P6SM SKC=



000
FTUS46 KSTO 161100
TAFRDD
TAF
KRDD 161131Z 1612/1712 34008KT P6SM FEW200
     FM161600 35012G22KT P6SM BKN200
     FM162000 36010G15KT P6SM FEW200
     FM162200 36006KT P6SM SKC=



000
FTUS46 KSTO 161100
TAFMHR
TAF
KMHR 161131Z 1612/1712 VRB05KT P6SM FEW200
     FM161800 32010G16KT P6SM SCT200
     FM162100 32008KT P6SM SKC
     FM170000 VRB04KT P6SM SKC=



000
FTUS46 KSTO 161100
TAFSMF
TAF
KSMF 161131Z 1612/1712 29009KT P6SM FEW200
     FM161800 33010G18KT P6SM SCT200
     FM162200 34011KT P6SM SKC
     FM170000 VRB05KT P6SM SKC=



000
FTUS46 KSTO 161100
TAFSAC
TAF
KSAC 161131Z 1612/1712 VRB06KT P6SM FEW200
     FM161800 34010G16KT P6SM SCT200
     FM162200 33011KT P6SM SKC
     FM170000 VRB05KT P6SM SKC=



000
FTUS46 KSTO 160500
TAFMHR
TAF
KMHR 160520Z 1606/1706 VRB05KT P6SM FEW200
     FM161700 32010G16KT P6SM SCT200
     FM162100 32009KT P6SM SKC
     FM170200 28004KT P6SM SKC=



000
FTUS46 KSTO 160500
TAFSCK
TAF
KSCK 160520Z 1606/1706 30010KT P6SM FEW200
     FM161700 33010G16KT P6SM SCT200
     FM162200 30010KT P6SM SKC=



000
FTUS46 KSTO 160500
TAFSMF
TAF
KSMF 160520Z 1606/1706 21006KT P6SM FEW200
     FM161000 29009KT P6SM SCT200
     FM161600 33012G18KT P6SM SCT200
     FM161900 33014G22KT P6SM SKC
     FM162200 34011KT P6SM SKC
     FM170200 29005KT P6SM SKC=



000
FTUS46 KSTO 160500
TAFRDD
TAF
KRDD 160520Z 1606/1706 35009KT P6SM SCT200
     FM161600 35012G23KT P6SM BKN200
     FM162000 36010G15KT P6SM FEW200
     FM162200 36006KT P6SM SKC=



000
FTUS46 KSTO 160500
TAFSAC
TAF
KSAC 160520Z 1606/1706 VRB06KT P6SM FEW200
     FM161600 34010G16KT P6SM SCT200
     FM161900 33013G21KT P6SM SKC
     FM162200 33011KT P6SM SKC
     FM170200 28005KT P6SM SKC=



000
FTUS46 KSTO 160500
TAFRBL
TAF
KRBL 160520Z 1606/1706 31006KT P6SM SCT200
     FM161500 34014G24KT P6SM BKN200
     FM162200 35012G17KT P6SM SKC
     FM170200 35009KT P6SM SKC=



000
FTUS46 KSTO 152300
TAFSCK
TAF
KSCK 152339Z 1600/1624 30010KT P6SM FEW200
     FM161700 33010G16KT P6SM SCT200
     FM162200 32010KT P6SM SKC=



000
FTUS46 KSTO 152300
TAFRDD
TAF
KRDD 152339Z 1600/1624 01005KT P6SM SCT200
     FM161600 35012G23KT P6SM BKN200
     FM162000 36010G15KT P6SM SKC
     FM162200 36006KT P6SM SKC=



000
FTUS46 KSTO 152300
TAFSMF
TAF
KSMF 152339Z 1600/1624 VRB06KT P6SM FEW200
     FM161600 33012G18KT P6SM SCT200
     FM161900 33014G22KT P6SM SKC
     FM162200 34011KT P6SM SKC=



000
FTUS46 KSTO 152300
TAFSAC
TAF
KSAC 152339Z 1600/1624 VRB06KT P6SM FEW200
     FM161600 33011G17KT P6SM SCT200
     FM161900 33013G21KT P6SM SKC
     FM162200 33011KT P6SM SKC=



000
FTUS46 KSTO 152300
TAFRBL
TAF
KRBL 152339Z 1600/1624 35008KT P6SM SCT200
     FM161500 34014G24KT P6SM BKN200
     FM162100 35012G17KT P6SM SKC
     FM162300 35009KT P6SM SKC=



000
FTUS46 KSTO 152300
TAFMHR
TAF
KMHR 152339Z 1600/1624 VRB06KT P6SM FEW200
     FM161700 32010G16KT P6SM SCT200
     FM162200 32009KT P6SM SKC=



000
FTUS46 KSTO 151700
TAFMHR
TAF
KMHR 151720Z 1518/1618 VRB06KT P6SM FEW200
     FM161700 32010G16KT P6SM SCT200=



000
FTUS46 KSTO 151700
TAFSMF
TAF
KSMF 151720Z 1518/1618 VRB06KT P6SM FEW200
     FM161600 33012G18KT P6SM SCT200=



000
FTUS46 KSTO 151700
TAFSCK
TAF
KSCK 151720Z 1518/1618 30010KT P6SM FEW200
     FM161700 33010G16KT P6SM SCT200=



000
FTUS46 KSTO 151700
TAFRBL
TAF
KRBL 151720Z 1518/1618 35008KT P6SM SCT200
     FM161600 34015G25KT P6SM BKN200=



000
FTUS46 KSTO 151700
TAFRDD
TAF
KRDD 151720Z 1518/1618 36007KT P6SM SCT200
     FM161600 35010G20KT P6SM BKN200=



000
FTUS46 KSTO 151700
TAFSAC
TAF
KSAC 151720Z 1518/1618 VRB06KT P6SM FEW200
     FM161600 33011G17KT P6SM SCT200=



000
FTUS46 KSTO 151100
TAFMHR
TAF
KMHR 151120Z 1512/1612 15005KT P6SM SKC
     FM152100 32005KT P6SM FEW250=



000
FTUS46 KSTO 151100
TAFSAC
TAF
KSAC 151120Z 1512/1612 20005KT P6SM SKC
     FM152000 31007KT P6SM FEW250=



000
FTUS46 KSTO 151100
TAFRBL
TAF
KRBL 151120Z 1512/1612 36008KT P6SM SCT250=



000
FTUS46 KSTO 151100
TAFRDD
TAF
KRDD 151120Z 1512/1612 36006KT P6SM SCT250=



000
FTUS46 KSTO 151100
TAFSCK
TAF
KSCK 151120Z 1512/1612 30010KT P6SM FEW250=



000
FTUS46 KSTO 151100
TAFSMF
TAF
KSMF 151120Z 1512/1612 16008KT P6SM SKC
     FM152100 32007KT P6SM FEW250=



000
FTUS46 KSTO 150500
TAFSMF
TAF
KSMF 150520Z 1506/1606 18008KT P6SM FEW250
     FM152100 32007KT P6SM SKC=



000
FTUS46 KSTO 150500
TAFRDD
TAF
KRDD 150520Z 1506/1606 VRB04KT P6SM BKN200
     FM151700 36006KT P6SM BKN200=



000
FTUS46 KSTO 150500
TAFRBL
TAF
KRBL 150520Z 1506/1606 VRB04KT P6SM BKN200
     FM151800 36008KT P6SM BKN200=



000
FTUS46 KSTO 150500
TAFMHR
TAF
KMHR 150520Z 1506/1606 15005KT P6SM FEW250
     FM152100 32005KT P6SM FEW250=



000
FTUS46 KSTO 150500
TAFSCK
TAF
KSCK 150520Z 1506/1606 VRB04KT P6SM FEW250
     FM151800 30010KT P6SM SKC=



000
FTUS46 KSTO 150500
TAFSAC
TAF
KSAC 150520Z 1506/1606 20005KT P6SM FEW250
     FM152000 29007KT P6SM SKC=



    US Dept of Commerce
    National Oceanic and Atmospheric Administration
    National Weather Service
    1325 East West Highway
    Silver Spring, MD 20910
    Page Author: NWS Internet Services Team
Disclaimer
Information Quality
Credits
Glossary
Privacy Policy
Freedom of Information Act (FOIA)
About Us
Career Opportunities